Rudyard, MI (49780)

12:16 PM EDT on March 27, 2015 (GMT -0400)
MesoWest Rudyard MI US MIDOT | | Change Station
CLOSE
Current Station
Personal Weather Station
Location: Rudyard, MI
Elevation: 668 ft
Nearby Weather Stations

Elev 668 ft 46.19 °N, 84.56 °W | Updated 3 days ago

Clear
Clear
17 °F
Feels Like 5 °F
N
12
Wind Variable Wind from NNW
Gusts mph

Today
High -- | Low -- °F
--% Chance of Precip.
Yesterday
High -- | Low -- °F
Precip. -- in
7:27 AM 7:59 PM
First Quarter, 54% visible
Pressure 30.16 in
Visibility 9.0 miles
Clouds Clear
Windchill 5 °F
Dew Point 3 °F
Humidity 55%
Rainfall in
Snow Depth Not available.
UV 5 out of 12
Pollen .20 out of 12
Air Quality Not available.
Flu Activity Not available.
METAR KCIU 271555Z AUTO 33010KT 9SM CLR M12/M18 A3016 RMK AO1

More Conditions Fewer Conditions

Pressure 30.16 in
Visibility 9.0 miles
Clouds Clear
Windchill 5 °F
Dew Point 3 °F
Humidity 55%
Rainfall in
Snow Depth Not available.
UV 5 out of 12
Pollen .20 out of 12
Air Quality Not available.
Flu Activity Not available.
METAR KCIU 271555Z AUTO 33010KT 9SM CLR M12/M18 A3016 RMK AO1

More Conditions Fewer Conditions

Nowcast | as of 12:00 PM EDT on March 27, 2015

At 1 PM...mostly clear. Temperature 13. North winds 11 mph. Wind chill 1 below. At 3 PM...mostly clear. Temperature 17. Northwest winds 13 mph. At 5 PM...mostly clear. Temperature 18. Northwest winds 15 mph. At 7 PM...mostly clear. Temperature 15. Northwest winds 13 mph.

×

10-Day Weather Forecast

Almanac

Astronomy

Mar. 27, 2015 Rise Set
Actual Time
Civil Twilight
Nautical Twilight
Astronomical Twilight
Moon
Length of Visible Light
Length of Day
Tomorrow will be .
, % of the Moon is Illuminated

Today's Extremes

State Highs State Lows

Community

WunderPhotos

Upload Photos

1,808,766 photos uploaded!

WunderBlogs® & News

Nearby

Air Quality

  Air Quality AQ Index Pollutant
Not available.

Snow Depth

Station Depth Elevation

Earthquake Activity

City Distance Mag. Time & Date
Minimum magnitude displayed is 2.5.

Coastal Water Temperatures

Place Temperature

Stations

Nearby Weather Stations

Station Location Temp. Windchill Dew Point Humidity Wind Precip. Elev Updated Type